sensor_id;sensor_type;location;lat;lon;timestamp;P1;durP1;ratioP1;P2;durP2;ratioP2
75358;SDS011;64046;51.978;5.934;2023-07-30T00:00:44;6.53;;;2.25;;
75358;SDS011;64046;51.978;5.934;2023-07-30T00:03:15;6.95;;;2.33;;
75358;SDS011;64046;51.978;5.934;2023-07-30T00:05:53;8.20;;;2.80;;
75358;SDS011;64046;51.978;5.934;2023-07-30T00:08:37;6.25;;;2.40;;
75358;SDS011;64046;51.978;5.934;2023-07-30T00:11:07;6.82;;;2.97;;
75358;SDS011;64046;51.978;5.934;2023-07-30T00:13:36;11.75;;;7.20;;
75358;SDS011;64046;51.978;5.934;2023-07-30T00:16:13;7.63;;;3.35;;
75358;SDS011;64046;51.978;5.934;2023-07-30T00:18:42;7.57;;;2.83;;
75358;SDS011;64046;51.978;5.934;2023-07-30T00:21:14;6.45;;;2.60;;
75358;SDS011;64046;51.978;5.934;2023-07-30T00:23:47;8.15;;;2.47;;
75358;SDS011;64046;51.978;5.934;2023-07-30T00:26:16;5.80;;;2.67;;
75358;SDS011;64046;51.978;5.934;2023-07-30T00:28:47;8.85;;;2.72;;
75358;SDS011;64046;51.978;5.934;2023-07-30T00:31:21;4.78;;;2.42;;
75358;SDS011;64046;51.978;5.934;2023-07-30T00:33:55;8.65;;;3.05;;
75358;SDS011;64046;51.978;5.934;2023-07-30T00:36:26;8.82;;;3.38;;
75358;SDS011;64046;51.978;5.934;2023-07-30T00:38:56;7.65;;;2.97;;
75358;SDS011;64046;51.978;5.934;2023-07-30T00:41:42;7.68;;;2.90;;
75358;SDS011;64046;51.978;5.934;2023-07-30T00:44:16;7.90;;;2.55;;
75358;SDS011;64046;51.978;5.934;2023-07-30T00:46:54;8.52;;;2.75;;
75358;SDS011;64046;51.978;5.934;2023-07-30T00:49:35;4.88;;;2.45;;
75358;SDS011;64046;51.978;5.934;2023-07-30T00:52:14;7.72;;;2.47;;
75358;SDS011;64046;51.978;5.934;2023-07-30T00:54:51;9.27;;;2.72;;
75358;SDS011;64046;51.978;5.934;2023-07-30T00:57:23;5.95;;;2.80;;
75358;SDS011;64046;51.978;5.934;2023-07-30T00:59:53;6.10;;;2.75;;
75358;SDS011;64046;51.978;5.934;2023-07-30T01:02:27;11.10;;;2.92;;
75358;SDS011;64046;51.978;5.934;2023-07-30T01:04:58;7.03;;;2.60;;
75358;SDS011;64046;51.978;5.934;2023-07-30T01:07:30;6.82;;;2.67;;
75358;SDS011;64046;51.978;5.934;2023-07-30T01:10:05;7.78;;;2.42;;
75358;SDS011;64046;51.978;5.934;2023-07-30T01:12:38;6.00;;;2.20;;
75358;SDS011;64046;51.978;5.934;2023-07-30T01:15:23;8.85;;;2.95;;
75358;SDS011;64046;51.978;5.934;2023-07-30T01:17:55;8.05;;;2.80;;
75358;SDS011;64046;51.978;5.934;2023-07-30T01:20:29;5.00;;;2.05;;
75358;SDS011;64046;51.978;5.934;2023-07-30T01:23:05;6.93;;;2.63;;
75358;SDS011;64046;51.978;5.934;2023-07-30T01:25:38;8.30;;;3.10;;
75358;SDS011;64046;51.978;5.934;2023-07-30T01:28:09;10.38;;;3.08;;
75358;SDS011;64046;51.978;5.934;2023-07-30T01:30:57;6.82;;;2.85;;
75358;SDS011;64046;51.978;5.934;2023-07-30T01:33:30;8.50;;;2.40;;
75358;SDS011;64046;51.978;5.934;2023-07-30T01:36:03;5.78;;;2.33;;
75358;SDS011;64046;51.978;5.934;2023-07-30T01:38:43;6.15;;;2.80;;
75358;SDS011;64046;51.978;5.934;2023-07-30T01:41:15;5.32;;;2.97;;
75358;SDS011;64046;51.978;5.934;2023-07-30T01:43:45;5.65;;;2.72;;
75358;SDS011;64046;51.978;5.934;2023-07-30T01:46:19;4.97;;;2.50;;
75358;SDS011;64046;51.978;5.934;2023-07-30T01:48:52;9.98;;;2.65;;
75358;SDS011;64046;51.978;5.934;2023-07-30T01:51:24;10.15;;;3.00;;
75358;SDS011;64046;51.978;5.934;2023-07-30T01:53:58;6.97;;;3.20;;
75358;SDS011;64046;51.978;5.934;2023-07-30T01:56:29;5.82;;;2.90;;
75358;SDS011;64046;51.978;5.934;2023-07-30T01:59:03;9.32;;;3.03;;
75358;SDS011;64046;51.978;5.934;2023-07-30T02:01:35;10.20;;;3.08;;
75358;SDS011;64046;51.978;5.934;2023-07-30T02:04:08;7.05;;;2.70;;
75358;SDS011;64046;51.978;5.934;2023-07-30T02:06:40;8.68;;;3.15;;
75358;SDS011;64046;51.978;5.934;2023-07-30T02:09:13;9.90;;;3.13;;
75358;SDS011;64046;51.978;5.934;2023-07-30T02:11:47;6.15;;;2.92;;
75358;SDS011;64046;51.978;5.934;2023-07-30T02:14:17;6.30;;;3.20;;
75358;SDS011;64046;51.978;5.934;2023-07-30T02:16:50;8.63;;;3.67;;
75358;SDS011;64046;51.978;5.934;2023-07-30T02:19:24;7.80;;;3.17;;
75358;SDS011;64046;51.978;5.934;2023-07-30T02:21:55;9.35;;;3.40;;
75358;SDS011;64046;51.978;5.934;2023-07-30T02:24:27;8.98;;;2.92;;
75358;SDS011;64046;51.978;5.934;2023-07-30T02:27:01;6.47;;;3.33;;
75358;SDS011;64046;51.978;5.934;2023-07-30T02:29:39;8.63;;;3.40;;
75358;SDS011;64046;51.978;5.934;2023-07-30T02:32:09;8.10;;;2.80;;
75358;SDS011;64046;51.978;5.934;2023-07-30T02:34:43;7.07;;;3.72;;
75358;SDS011;64046;51.978;5.934;2023-07-30T02:37:12;7.50;;;3.67;;
75358;SDS011;64046;51.978;5.934;2023-07-30T02:39:51;5.72;;;2.70;;
75358;SDS011;64046;51.978;5.934;2023-07-30T02:42:44;8.60;;;2.97;;
75358;SDS011;64046;51.978;5.934;2023-07-30T02:45:15;9.73;;;3.08;;
75358;SDS011;64046;51.978;5.934;2023-07-30T02:47:45;9.38;;;3.42;;
75358;SDS011;64046;51.978;5.934;2023-07-30T02:50:15;13.35;;;3.17;;
75358;SDS011;64046;51.978;5.934;2023-07-30T02:52:44;10.38;;;3.10;;
75358;SDS011;64046;51.978;5.934;2023-07-30T02:55:17;7.93;;;2.95;;
75358;SDS011;64046;51.978;5.934;2023-07-30T02:57:47;8.68;;;3.08;;
75358;SDS011;64046;51.978;5.934;2023-07-30T03:00:17;9.85;;;3.50;;
75358;SDS011;64046;51.978;5.934;2023-07-30T03:02:47;6.28;;;2.67;;
75358;SDS011;64046;51.978;5.934;2023-07-30T03:05:19;8.23;;;3.20;;
75358;SDS011;64046;51.978;5.934;2023-07-30T03:07:50;12.00;;;3.60;;
75358;SDS011;64046;51.978;5.934;2023-07-30T03:10:22;10.68;;;3.63;;
75358;SDS011;64046;51.978;5.934;2023-07-30T03:12:52;8.30;;;3.38;;
75358;SDS011;64046;51.978;5.934;2023-07-30T03:15:24;13.40;;;3.72;;
75358;SDS011;64046;51.978;5.934;2023-07-30T03:17:56;11.65;;;3.85;;
75358;SDS011;64046;51.978;5.934;2023-07-30T03:20:31;10.30;;;3.25;;
75358;SDS011;64046;51.978;5.934;2023-07-30T03:23:25;9.93;;;3.22;;
75358;SDS011;64046;51.978;5.934;2023-07-30T03:26:00;10.77;;;3.90;;
75358;SDS011;64046;51.978;5.934;2023-07-30T03:28:30;12.85;;;3.80;;
75358;SDS011;64046;51.978;5.934;2023-07-30T03:31:02;12.38;;;3.72;;
75358;SDS011;64046;51.978;5.934;2023-07-30T03:33:35;9.20;;;3.65;;
75358;SDS011;64046;51.978;5.934;2023-07-30T03:36:06;15.15;;;4.32;;
75358;SDS011;64046;51.978;5.934;2023-07-30T03:38:36;12.35;;;4.30;;
75358;SDS011;64046;51.978;5.934;2023-07-30T03:41:15;10.10;;;4.07;;
75358;SDS011;64046;51.978;5.934;2023-07-30T03:43:46;13.30;;;4.82;;
75358;SDS011;64046;51.978;5.934;2023-07-30T03:46:18;12.90;;;3.85;;
75358;SDS011;64046;51.978;5.934;2023-07-30T03:49:09;8.73;;;3.63;;
75358;SDS011;64046;51.978;5.934;2023-07-30T03:51:38;17.92;;;5.22;;
75358;SDS011;64046;51.978;5.934;2023-07-30T03:54:08;13.27;;;4.00;;
75358;SDS011;64046;51.978;5.934;2023-07-30T03:56:41;9.90;;;3.88;;
75358;SDS011;64046;51.978;5.934;2023-07-30T03:59:16;7.75;;;4.05;;
75358;SDS011;64046;51.978;5.934;2023-07-30T04:01:48;12.25;;;4.85;;
75358;SDS011;64046;51.978;5.934;2023-07-30T04:04:24;10.65;;;4.18;;
75358;SDS011;64046;51.978;5.934;2023-07-30T04:06:54;16.77;;;4.88;;
75358;SDS011;64046;51.978;5.934;2023-07-30T04:09:26;11.82;;;4.47;;
75358;SDS011;64046;51.978;5.934;2023-07-30T04:12:07;14.25;;;4.50;;
75358;SDS011;64046;51.978;5.934;2023-07-30T04:14:41;12.32;;;4.82;;
75358;SDS011;64046;51.978;5.934;2023-07-30T04:17:20;7.22;;;4.07;;
75358;SDS011;64046;51.978;5.934;2023-07-30T04:19:53;16.33;;;4.60;;
75358;SDS011;64046;51.978;5.934;2023-07-30T04:22:25;12.00;;;4.47;;
75358;SDS011;64046;51.978;5.934;2023-07-30T04:24:57;16.90;;;5.72;;
75358;SDS011;64046;51.978;5.934;2023-07-30T04:27:34;13.85;;;5.05;;
75358;SDS011;64046;51.978;5.934;2023-07-30T04:30:05;18.13;;;6.15;;
75358;SDS011;64046;51.978;5.934;2023-07-30T04:32:37;11.38;;;4.65;;
75358;SDS011;64046;51.978;5.934;2023-07-30T04:35:10;12.48;;;5.03;;
75358;SDS011;64046;51.978;5.934;2023-07-30T04:37:44;13.05;;;4.45;;
75358;SDS011;64046;51.978;5.934;2023-07-30T04:40:18;14.60;;;5.35;;
75358;SDS011;64046;51.978;5.934;2023-07-30T04:42:50;12.68;;;5.00;;
75358;SDS011;64046;51.978;5.934;2023-07-30T04:45:20;18.33;;;5.32;;
75358;SDS011;64046;51.978;5.934;2023-07-30T04:47:53;17.05;;;5.57;;
75358;SDS011;64046;51.978;5.934;2023-07-30T04:50:25;14.00;;;5.68;;
75358;SDS011;64046;51.978;5.934;2023-07-30T04:52:55;18.25;;;5.65;;
75358;SDS011;64046;51.978;5.934;2023-07-30T04:55:32;15.20;;;5.10;;
75358;SDS011;64046;51.978;5.934;2023-07-30T04:58:11;18.75;;;4.95;;
75358;SDS011;64046;51.978;5.934;2023-07-30T05:00:46;19.42;;;4.75;;
75358;SDS011;64046;51.978;5.934;2023-07-30T05:03:16;17.02;;;5.47;;
75358;SDS011;64046;51.978;5.934;2023-07-30T05:05:46;14.25;;;5.00;;
75358;SDS011;64046;51.978;5.934;2023-07-30T05:08:20;13.25;;;4.45;;
75358;SDS011;64046;51.978;5.934;2023-07-30T05:10:55;11.65;;;4.93;;
75358;SDS011;64046;51.978;5.934;2023-07-30T05:13:29;20.52;;;6.65;;
75358;SDS011;64046;51.978;5.934;2023-07-30T05:16:01;14.20;;;5.68;;
75358;SDS011;64046;51.978;5.934;2023-07-30T05:18:32;15.13;;;5.30;;
75358;SDS011;64046;51.978;5.934;2023-07-30T05:21:04;15.23;;;5.93;;
75358;SDS011;64046;51.978;5.934;2023-07-30T05:23:38;11.90;;;5.05;;
75358;SDS011;64046;51.978;5.934;2023-07-30T05:26:10;19.92;;;7.43;;
75358;SDS011;64046;51.978;5.934;2023-07-30T05:28:45;21.10;;;6.45;;
75358;SDS011;64046;51.978;5.934;2023-07-30T05:31:17;23.55;;;6.97;;
75358;SDS011;64046;51.978;5.934;2023-07-30T05:33:48;20.50;;;7.55;;
75358;SDS011;64046;51.978;5.934;2023-07-30T05:36:19;15.23;;;5.93;;
75358;SDS011;64046;51.978;5.934;2023-07-30T05:38:51;13.20;;;5.68;;
75358;SDS011;64046;51.978;5.934;2023-07-30T05:41:22;15.60;;;6.07;;
75358;SDS011;64046;51.978;5.934;2023-07-30T05:43:57;22.88;;;7.15;;
75358;SDS011;64046;51.978;5.934;2023-07-30T05:46:26;17.15;;;5.75;;
75358;SDS011;64046;51.978;5.934;2023-07-30T05:48:57;17.25;;;6.15;;
75358;SDS011;64046;51.978;5.934;2023-07-30T05:51:27;17.27;;;6.13;;
75358;SDS011;64046;51.978;5.934;2023-07-30T05:53:57;18.48;;;6.22;;
75358;SDS011;64046;51.978;5.934;2023-07-30T05:56:28;19.90;;;7.72;;
75358;SDS011;64046;51.978;5.934;2023-07-30T05:59:04;19.75;;;6.60;;
75358;SDS011;64046;51.978;5.934;2023-07-30T06:01:37;17.90;;;6.53;;
75358;SDS011;64046;51.978;5.934;2023-07-30T06:04:10;15.95;;;6.45;;
75358;SDS011;64046;51.978;5.934;2023-07-30T06:06:40;15.32;;;6.95;;
75358;SDS011;64046;51.978;5.934;2023-07-30T06:09:09;18.85;;;6.45;;
75358;SDS011;64046;51.978;5.934;2023-07-30T06:11:38;22.52;;;7.72;;
75358;SDS011;64046;51.978;5.934;2023-07-30T06:14:14;21.75;;;7.65;;
75358;SDS011;64046;51.978;5.934;2023-07-30T06:16:43;20.50;;;7.13;;
75358;SDS011;64046;51.978;5.934;2023-07-30T06:19:13;25.02;;;7.13;;
75358;SDS011;64046;51.978;5.934;2023-07-30T06:21:43;23.85;;;8.18;;
75358;SDS011;64046;51.978;5.934;2023-07-30T06:24:13;19.55;;;8.00;;
75358;SDS011;64046;51.978;5.934;2023-07-30T06:26:46;20.52;;;7.22;;
75358;SDS011;64046;51.978;5.934;2023-07-30T06:29:19;20.27;;;7.45;;
75358;SDS011;64046;51.978;5.934;2023-07-30T06:31:48;17.02;;;7.07;;
75358;SDS011;64046;51.978;5.934;2023-07-30T06:34:19;15.57;;;6.47;;
75358;SDS011;64046;51.978;5.934;2023-07-30T06:36:55;18.17;;;6.50;;
75358;SDS011;64046;51.978;5.934;2023-07-30T06:39:25;18.17;;;6.50;;
75358;SDS011;64046;51.978;5.934;2023-07-30T06:41:54;25.90;;;7.65;;
75358;SDS011;64046;51.978;5.934;2023-07-30T06:44:27;17.85;;;8.07;;
75358;SDS011;64046;51.978;5.934;2023-07-30T06:46:58;24.70;;;7.43;;
75358;SDS011;64046;51.978;5.934;2023-07-30T06:49:27;26.38;;;8.23;;
75358;SDS011;64046;51.978;5.934;2023-07-30T06:51:58;14.40;;;6.68;;
75358;SDS011;64046;51.978;5.934;2023-07-30T06:54:29;15.35;;;6.57;;
75358;SDS011;64046;51.978;5.934;2023-07-30T06:56:59;14.80;;;6.22;;
75358;SDS011;64046;51.978;5.934;2023-07-30T06:59:33;20.40;;;7.47;;
75358;SDS011;64046;51.978;5.934;2023-07-30T07:02:05;20.65;;;7.18;;
75358;SDS011;64046;51.978;5.934;2023-07-30T07:04:34;23.08;;;6.50;;
75358;SDS011;64046;51.978;5.934;2023-07-30T07:07:04;19.52;;;7.65;;
75358;SDS011;64046;51.978;5.934;2023-07-30T07:09:34;19.83;;;7.55;;
75358;SDS011;64046;51.978;5.934;2023-07-30T07:12:03;23.05;;;7.28;;
75358;SDS011;64046;51.978;5.934;2023-07-30T07:14:39;15.93;;;6.45;;
75358;SDS011;64046;51.978;5.934;2023-07-30T07:17:09;20.55;;;7.13;;
75358;SDS011;64046;51.978;5.934;2023-07-30T07:19:41;14.98;;;6.70;;
75358;SDS011;64046;51.978;5.934;2023-07-30T07:22:11;23.85;;;8.95;;
75358;SDS011;64046;51.978;5.934;2023-07-30T07:24:44;17.33;;;6.75;;
75358;SDS011;64046;51.978;5.934;2023-07-30T07:27:13;27.33;;;8.82;;
75358;SDS011;64046;51.978;5.934;2023-07-30T07:29:46;22.48;;;8.13;;
75358;SDS011;64046;51.978;5.934;2023-07-30T07:32:18;20.80;;;7.50;;
75358;SDS011;64046;51.978;5.934;2023-07-30T07:34:49;17.15;;;7.43;;
75358;SDS011;64046;51.978;5.934;2023-07-30T07:37:23;18.38;;;7.65;;
75358;SDS011;64046;51.978;5.934;2023-07-30T07:39:56;20.60;;;7.03;;
75358;SDS011;64046;51.978;5.934;2023-07-30T07:42:28;17.90;;;6.57;;
75358;SDS011;64046;51.978;5.934;2023-07-30T07:45:06;14.80;;;5.82;;
75358;SDS011;64046;51.978;5.934;2023-07-30T07:47:36;15.43;;;6.35;;
75358;SDS011;64046;51.978;5.934;2023-07-30T07:50:08;23.40;;;7.75;;
75358;SDS011;64046;51.978;5.934;2023-07-30T07:52:42;22.60;;;7.07;;
75358;SDS011;64046;51.978;5.934;2023-07-30T07:55:14;18.48;;;5.65;;
75358;SDS011;64046;51.978;5.934;2023-07-30T07:57:47;18.60;;;5.95;;
75358;SDS011;64046;51.978;5.934;2023-07-30T08:00:24;16.58;;;5.43;;
75358;SDS011;64046;51.978;5.934;2023-07-30T08:02:59;17.45;;;5.45;;
75358;SDS011;64046;51.978;5.934;2023-07-30T08:05:31;13.57;;;4.60;;
75358;SDS011;64046;51.978;5.934;2023-07-30T08:08:09;21.05;;;5.82;;
75358;SDS011;64046;51.978;5.934;2023-07-30T08:10:47;15.32;;;5.05;;
75358;SDS011;64046;51.978;5.934;2023-07-30T08:13:23;13.13;;;4.90;;
75358;SDS011;64046;51.978;5.934;2023-07-30T08:15:56;17.15;;;5.10;;
75358;SDS011;64046;51.978;5.934;2023-07-30T08:18:26;12.35;;;4.07;;
75358;SDS011;64046;51.978;5.934;2023-07-30T08:20:59;15.05;;;5.03;;
75358;SDS011;64046;51.978;5.934;2023-07-30T08:23:31;17.83;;;5.20;;
75358;SDS011;64046;51.978;5.934;2023-07-30T08:26:05;15.27;;;4.90;;
75358;SDS011;64046;51.978;5.934;2023-07-30T08:28:39;17.85;;;4.93;;
75358;SDS011;64046;51.978;5.934;2023-07-30T08:31:16;20.67;;;4.43;;
75358;SDS011;64046;51.978;5.934;2023-07-30T08:33:52;13.82;;;4.30;;
75358;SDS011;64046;51.978;5.934;2023-07-30T08:36:23;15.15;;;5.05;;
75358;SDS011;64046;51.978;5.934;2023-07-30T08:38:54;11.23;;;4.30;;
75358;SDS011;64046;51.978;5.934;2023-07-30T08:41:30;13.45;;;4.43;;
75358;SDS011;64046;51.978;5.934;2023-07-30T08:44:04;21.13;;;6.03;;
75358;SDS011;64046;51.978;5.934;2023-07-30T08:46:39;13.80;;;5.07;;
75358;SDS011;64046;51.978;5.934;2023-07-30T08:49:13;17.50;;;5.85;;
75358;SDS011;64046;51.978;5.934;2023-07-30T08:51:43;14.98;;;5.18;;
75358;SDS011;64046;51.978;5.934;2023-07-30T08:54:21;17.70;;;5.28;;
75358;SDS011;64046;51.978;5.934;2023-07-30T08:57:00;15.70;;;4.68;;
75358;SDS011;64046;51.978;5.934;2023-07-30T08:59:33;13.25;;;4.18;;
75358;SDS011;64046;51.978;5.934;2023-07-30T09:02:18;11.52;;;4.10;;
75358;SDS011;64046;51.978;5.934;2023-07-30T09:05:02;14.88;;;4.72;;
75358;SDS011;64046;51.978;5.934;2023-07-30T09:07:37;16.00;;;4.50;;
75358;SDS011;64046;51.978;5.934;2023-07-30T09:10:09;10.73;;;3.95;;
75358;SDS011;64046;51.978;5.934;2023-07-30T09:12:41;17.27;;;4.60;;
75358;SDS011;64046;51.978;5.934;2023-07-30T09:15:11;16.83;;;4.78;;
75358;SDS011;64046;51.978;5.934;2023-07-30T09:17:43;14.88;;;4.03;;
75358;SDS011;64046;51.978;5.934;2023-07-30T09:20:14;10.95;;;3.38;;
75358;SDS011;64046;51.978;5.934;2023-07-30T09:22:50;9.18;;;3.20;;
75358;SDS011;64046;51.978;5.934;2023-07-30T09:25:26;17.13;;;4.22;;
75358;SDS011;64046;51.978;5.934;2023-07-30T09:27:58;14.60;;;3.97;;
75358;SDS011;64046;51.978;5.934;2023-07-30T09:30:29;12.13;;;3.22;;
75358;SDS011;64046;51.978;5.934;2023-07-30T09:33:04;15.70;;;3.70;;
75358;SDS011;64046;51.978;5.934;2023-07-30T09:35:34;15.55;;;3.58;;
75358;SDS011;64046;51.978;5.934;2023-07-30T09:38:05;7.57;;;3.10;;
75358;SDS011;64046;51.978;5.934;2023-07-30T09:40:35;18.17;;;4.68;;
75358;SDS011;64046;51.978;5.934;2023-07-30T09:43:11;16.75;;;3.05;;
75358;SDS011;64046;51.978;5.934;2023-07-30T09:45:43;12.63;;;3.25;;
75358;SDS011;64046;51.978;5.934;2023-07-30T09:48:18;12.73;;;3.20;;
75358;SDS011;64046;51.978;5.934;2023-07-30T09:50:49;8.07;;;2.88;;
75358;SDS011;64046;51.978;5.934;2023-07-30T09:53:29;10.07;;;3.15;;
75358;SDS011;64046;51.978;5.934;2023-07-30T09:56:00;11.73;;;3.30;;
75358;SDS011;64046;51.978;5.934;2023-07-30T09:58:34;15.57;;;3.10;;
75358;SDS011;64046;51.978;5.934;2023-07-30T10:01:11;14.63;;;3.45;;
75358;SDS011;64046;51.978;5.934;2023-07-30T10:03:48;9.10;;;2.90;;
75358;SDS011;64046;51.978;5.934;2023-07-30T10:06:24;9.57;;;2.85;;
75358;SDS011;64046;51.978;5.934;2023-07-30T10:11:41;15.73;;;3.13;;
75358;SDS011;64046;51.978;5.934;2023-07-30T10:14:17;10.23;;;3.17;;
75358;SDS011;64046;51.978;5.934;2023-07-30T10:16:52;11.32;;;3.13;;
75358;SDS011;64046;51.978;5.934;2023-07-30T10:19:27;19.85;;;3.60;;
75358;SDS011;64046;51.978;5.934;2023-07-30T10:22:20;7.75;;;2.70;;
75358;SDS011;64046;51.978;5.934;2023-07-30T10:24:57;12.35;;;2.65;;
75358;SDS011;64046;51.978;5.934;2023-07-30T10:27:35;10.50;;;2.90;;
75358;SDS011;64046;51.978;5.934;2023-07-30T10:30:17;12.35;;;3.25;;
75358;SDS011;64046;51.978;5.934;2023-07-30T10:33:04;8.90;;;2.47;;
75358;SDS011;64046;51.978;5.934;2023-07-30T10:35:42;6.40;;;2.20;;
75358;SDS011;64046;51.978;5.934;2023-07-30T10:38:16;12.18;;;2.42;;
75358;SDS011;64046;51.978;5.934;2023-07-30T10:41:00;11.57;;;3.80;;
75358;SDS011;64046;51.978;5.934;2023-07-30T10:43:36;13.88;;;3.25;;
75358;SDS011;64046;51.978;5.934;2023-07-30T10:46:09;10.70;;;2.63;;
75358;SDS011;64046;51.978;5.934;2023-07-30T10:48:47;6.80;;;2.17;;
75358;SDS011;64046;51.978;5.934;2023-07-30T10:51:22;5.95;;;1.75;;
75358;SDS011;64046;51.978;5.934;2023-07-30T10:53:58;8.65;;;1.77;;
75358;SDS011;64046;51.978;5.934;2023-07-30T10:56:39;6.15;;;1.77;;
75358;SDS011;64046;51.978;5.934;2023-07-30T10:59:13;12.35;;;2.38;;
75358;SDS011;64046;51.978;5.934;2023-07-30T11:01:47;8.70;;;1.88;;
75358;SDS011;64046;51.978;5.934;2023-07-30T11:04:25;5.57;;;1.40;;
75358;SDS011;64046;51.978;5.934;2023-07-30T11:07:01;5.05;;;1.58;;
75358;SDS011;64046;51.978;5.934;2023-07-30T11:09:34;6.63;;;2.10;;
75358;SDS011;64046;51.978;5.934;2023-07-30T11:12:08;11.05;;;2.50;;
75358;SDS011;64046;51.978;5.934;2023-07-30T11:14:42;8.73;;;2.25;;
75358;SDS011;64046;51.978;5.934;2023-07-30T11:17:13;6.78;;;1.80;;
75358;SDS011;64046;51.978;5.934;2023-07-30T11:19:58;5.20;;;1.83;;
75358;SDS011;64046;51.978;5.934;2023-07-30T11:22:35;10.18;;;2.35;;
75358;SDS011;64046;51.978;5.934;2023-07-30T11:25:15;8.85;;;2.25;;
75358;SDS011;64046;51.978;5.934;2023-07-30T11:27:49;6.72;;;2.65;;
75358;SDS011;64046;51.978;5.934;2023-07-30T11:30:26;6.10;;;1.63;;
75358;SDS011;64046;51.978;5.934;2023-07-30T11:33:02;7.32;;;1.83;;
75358;SDS011;64046;51.978;5.934;2023-07-30T11:35:34;5.13;;;1.90;;
75358;SDS011;64046;51.978;5.934;2023-07-30T11:38:13;6.45;;;1.52;;
75358;SDS011;64046;51.978;5.934;2023-07-30T11:40:48;7.70;;;2.00;;
75358;SDS011;64046;51.978;5.934;2023-07-30T11:43:18;8.43;;;2.17;;
75358;SDS011;64046;51.978;5.934;2023-07-30T11:46:07;7.53;;;2.47;;
75358;SDS011;64046;51.978;5.934;2023-07-30T11:48:41;6.22;;;2.10;;
75358;SDS011;64046;51.978;5.934;2023-07-30T11:51:34;6.85;;;1.92;;
75358;SDS011;64046;51.978;5.934;2023-07-30T11:54:18;7.82;;;2.20;;
75358;SDS011;64046;51.978;5.934;2023-07-30T11:56:53;10.13;;;2.17;;
75358;SDS011;64046;51.978;5.934;2023-07-30T11:59:25;5.53;;;1.83;;
75358;SDS011;64046;51.978;5.934;2023-07-30T12:01:57;5.80;;;1.77;;
75358;SDS011;64046;51.978;5.934;2023-07-30T12:04:38;6.32;;;1.98;;
75358;SDS011;64046;51.978;5.934;2023-07-30T12:07:23;13.77;;;2.67;;
75358;SDS011;64046;51.978;5.934;2023-07-30T12:10:00;4.18;;;1.63;;
75358;SDS011;64046;51.978;5.934;2023-07-30T12:12:50;11.07;;;1.80;;
75358;SDS011;64046;51.978;5.934;2023-07-30T12:15:20;5.85;;;1.65;;
75358;SDS011;64046;51.978;5.934;2023-07-30T12:17:55;5.75;;;1.48;;
75358;SDS011;64046;51.978;5.934;2023-07-30T12:20:30;9.88;;;3.22;;
75358;SDS011;64046;51.978;5.934;2023-07-30T12:23:01;5.00;;;1.60;;
75358;SDS011;64046;51.978;5.934;2023-07-30T12:25:34;7.45;;;2.00;;
75358;SDS011;64046;51.978;5.934;2023-07-30T12:28:08;7.65;;;1.85;;
75358;SDS011;64046;51.978;5.934;2023-07-30T12:30:39;8.25;;;1.85;;
75358;SDS011;64046;51.978;5.934;2023-07-30T12:33:10;6.05;;;1.90;;
75358;SDS011;64046;51.978;5.934;2023-07-30T12:35:44;7.80;;;2.03;;
75358;SDS011;64046;51.978;5.934;2023-07-30T12:38:16;8.63;;;1.70;;
75358;SDS011;64046;51.978;5.934;2023-07-30T12:40:48;8.95;;;1.60;;
75358;SDS011;64046;51.978;5.934;2023-07-30T12:43:18;4.28;;;1.45;;
75358;SDS011;64046;51.978;5.934;2023-07-30T12:45:53;7.07;;;1.70;;
75358;SDS011;64046;51.978;5.934;2023-07-30T12:48:31;4.25;;;1.50;;
75358;SDS011;64046;51.978;5.934;2023-07-30T12:51:00;5.55;;;1.92;;
75358;SDS011;64046;51.978;5.934;2023-07-30T12:53:32;5.47;;;1.70;;
75358;SDS011;64046;51.978;5.934;2023-07-30T12:56:07;6.53;;;1.90;;
75358;SDS011;64046;51.978;5.934;2023-07-30T12:58:41;7.35;;;1.38;;
75358;SDS011;64046;51.978;5.934;2023-07-30T13:01:16;6.53;;;2.00;;
75358;SDS011;64046;51.978;5.934;2023-07-30T13:03:48;4.00;;;1.77;;
75358;SDS011;64046;51.978;5.934;2023-07-30T13:06:22;4.75;;;1.80;;
75358;SDS011;64046;51.978;5.934;2023-07-30T13:08:56;4.60;;;1.17;;
75358;SDS011;64046;51.978;5.934;2023-07-30T13:11:29;5.60;;;1.30;;
75358;SDS011;64046;51.978;5.934;2023-07-30T13:14:05;4.75;;;1.65;;
75358;SDS011;64046;51.978;5.934;2023-07-30T13:16:36;6.75;;;1.52;;
75358;SDS011;64046;51.978;5.934;2023-07-30T13:19:14;7.93;;;2.15;;
75358;SDS011;64046;51.978;5.934;2023-07-30T13:21:46;9.25;;;1.67;;
75358;SDS011;64046;51.978;5.934;2023-07-30T13:24:17;7.68;;;1.67;;
75358;SDS011;64046;51.978;5.934;2023-07-30T13:26:56;6.55;;;1.52;;
75358;SDS011;64046;51.978;5.934;2023-07-30T13:29:26;5.35;;;1.40;;
75358;SDS011;64046;51.978;5.934;2023-07-30T13:31:55;6.00;;;1.50;;
75358;SDS011;64046;51.978;5.934;2023-07-30T13:34:25;4.65;;;1.20;;
75358;SDS011;64046;51.978;5.934;2023-07-30T13:36:55;7.05;;;1.77;;
75358;SDS011;64046;51.978;5.934;2023-07-30T13:39:26;6.55;;;1.67;;
75358;SDS011;64046;51.978;5.934;2023-07-30T13:41:58;5.85;;;1.80;;
75358;SDS011;64046;51.978;5.934;2023-07-30T13:44:30;6.63;;;1.85;;
75358;SDS011;64046;51.978;5.934;2023-07-30T13:47:01;8.35;;;1.70;;
75358;SDS011;64046;51.978;5.934;2023-07-30T13:49:33;5.85;;;2.50;;
75358;SDS011;64046;51.978;5.934;2023-07-30T13:52:11;5.10;;;1.60;;
75358;SDS011;64046;51.978;5.934;2023-07-30T13:54:43;3.20;;;1.25;;
75358;SDS011;64046;51.978;5.934;2023-07-30T13:57:23;3.40;;;1.20;;
75358;SDS011;64046;51.978;5.934;2023-07-30T13:59:58;3.97;;;1.17;;
75358;SDS011;64046;51.978;5.934;2023-07-30T14:02:34;3.95;;;1.27;;
75358;SDS011;64046;51.978;5.934;2023-07-30T14:05:34;4.38;;;1.30;;
75358;SDS011;64046;51.978;5.934;2023-07-30T14:08:06;7.53;;;1.38;;
75358;SDS011;64046;51.978;5.934;2023-07-30T14:10:40;3.03;;;1.05;;
75358;SDS011;64046;51.978;5.934;2023-07-30T14:13:13;3.70;;;1.67;;
75358;SDS011;64046;51.978;5.934;2023-07-30T14:15:47;3.75;;;1.73;;
75358;SDS011;64046;51.978;5.934;2023-07-30T14:18:17;3.92;;;1.33;;
75358;SDS011;64046;51.978;5.934;2023-07-30T14:20:50;10.13;;;1.35;;
75358;SDS011;64046;51.978;5.934;2023-07-30T14:23:22;3.35;;;1.60;;
75358;SDS011;64046;51.978;5.934;2023-07-30T14:25:54;5.22;;;1.50;;
75358;SDS011;64046;51.978;5.934;2023-07-30T14:28:28;6.03;;;1.45;;
75358;SDS011;64046;51.978;5.934;2023-07-30T14:30:57;6.47;;;1.60;;
75358;SDS011;64046;51.978;5.934;2023-07-30T14:33:29;6.07;;;1.90;;
75358;SDS011;64046;51.978;5.934;2023-07-30T14:36:00;5.15;;;1.95;;
75358;SDS011;64046;51.978;5.934;2023-07-30T14:38:30;3.33;;;1.48;;
75358;SDS011;64046;51.978;5.934;2023-07-30T14:41:04;5.55;;;1.77;;
75358;SDS011;64046;51.978;5.934;2023-07-30T14:43:39;3.97;;;1.52;;
75358;SDS011;64046;51.978;5.934;2023-07-30T14:46:09;4.03;;;1.65;;
75358;SDS011;64046;51.978;5.934;2023-07-30T14:48:43;4.32;;;1.38;;
75358;SDS011;64046;51.978;5.934;2023-07-30T14:51:15;8.20;;;1.55;;
75358;SDS011;64046;51.978;5.934;2023-07-30T14:53:46;7.22;;;1.50;;
75358;SDS011;64046;51.978;5.934;2023-07-30T14:56:25;11.35;;;1.40;;
75358;SDS011;64046;51.978;5.934;2023-07-30T14:58:58;4.72;;;1.55;;
75358;SDS011;64046;51.978;5.934;2023-07-30T15:01:28;9.30;;;1.70;;
75358;SDS011;64046;51.978;5.934;2023-07-30T15:04:04;7.07;;;1.65;;
75358;SDS011;64046;51.978;5.934;2023-07-30T15:06:34;5.47;;;1.90;;
75358;SDS011;64046;51.978;5.934;2023-07-30T15:09:05;5.07;;;1.88;;
75358;SDS011;64046;51.978;5.934;2023-07-30T15:11:39;9.23;;;2.00;;
75358;SDS011;64046;51.978;5.934;2023-07-30T15:14:16;9.35;;;2.00;;
75358;SDS011;64046;51.978;5.934;2023-07-30T15:16:46;4.90;;;1.60;;
75358;SDS011;64046;51.978;5.934;2023-07-30T15:19:18;6.63;;;2.00;;
75358;SDS011;64046;51.978;5.934;2023-07-30T15:21:48;6.72;;;1.98;;